Ana Sayfa
METAR-TAF:

METAR-TAF

Havaalanları :

Etimesgut Havalimanı

Ankara Etimesgut, Türkiye

Enlem: 39-57N, Boylam: 032-41E, yükseklik: 799 m

METAR: eksik

Saat: 04:58 (01:58 UTC)

Tahmin

Rapor saat 22:40 UTC de 3 saat ve 18 dakika önce yapıldı.
Ayın 24'si saat 00 UTC'den ayın 24'si saat 09 UTC'ye kadar geçerli Tahmin
Rüzgar doğu/güneydoğudan 9 kt
Görüş mesafesi 10 km veya daha fazla
4000 ft yükseklikte parçalı bulutlu
10000 ft yükseklikte parçalı çok bulutlu

TAF: LTAD 232240Z 2400/2409 11009KT 9999 SCT040 BKN100

4.000'den fazla havaalanı için hava durumu gözlemleri ve tahminleri (METAR ve TAF raporları).

Kullanılabilir istasyonlar harita üzerinde sarı ve kırmızı noktalarla gösterilir.

İstasyonun adını görmek için fareyi noktanın üzerinde gezdirin.

Sonrasında hava gözlem ve tahminlerini görmek için tıklayın.

Haritayı değiştirmek için: yaklaştırmak için siyah artı işaretli yeşil düğmeye ve uzaklaştırmak için de eksi işaretli düğmeye hızla tıklayın; bitişik haritalar için yeşil okları kullanın.


METAR-TAF: